Onion Creek, California Weather observations

Data are for observation ending at time listed.
 Day   Time    Ave.   Ave.  Ave.  Vector   Max.   Stn.    Total    Solar   Ave.   Snow 
  of    of     Air    Rel.  Wind   Wind    Wind   Baro.  Precip.   Rad.    Soil   Depth
Year   Day     Temp.  Hum.  Speed  Dir.    Gust   Pres.                    Temp.       
2015   (PST)    F      %     mph   deg.    mph     mb.     in.     W/m2     F      in. 
---------------------------------------------------------------------------------------  
 211   15:40   82.7    19    0.5   233      2.1   837.6   36.66     152    72.6   999.0
 211   15:50   81.2    23    0.8   341      1.7   837.6   36.69     153    72.8   999.0
 211   16:00   80.5    26    0.6   282      1.7   837.6   36.66     240    72.8   999.0
 211   16:10   81.3    24    1.0   285      2.8   837.6   36.66     363    72.9   999.0
 211   16:20   83.0    23    2.0   291      6.6   837.5   36.69     473    72.9   999.0
 211   16:30   82.8    21    2.0   240      5.9   837.5   36.69     170    72.9   999.0
 211   16:40   83.0    21    1.9   272      5.3   837.5   36.69     570    72.9   999.0
 211   16:50   84.6    21    1.5   312      4.2   837.6   36.69     466    72.8   999.0
 211   17:00   83.5    21    2.8   317      8.5   837.7   36.66     415    72.8   999.0
 211   17:10   82.2    22    1.6   322      5.3   837.6   36.66     397    72.7   999.0
 211   17:20   81.7    22    2.1   329      7.6   837.5   36.66     352    72.7   999.0
 211   17:30   79.7    24    1.8   339      5.6   837.6   36.66     200    72.6   999.0
 211   17:40   79.6    22    2.9    16      7.2   837.6   36.69     288    72.6   999.0
 211   17:50   79.1    21    2.9   324      9.1   837.6   36.69     255    72.5   999.0
 211   18:00   79.4    20    1.0   330      2.9   837.5   36.69     228    72.5   999.0
 211   18:10   79.2    21    1.1   302      3.6   837.6   36.69      77    72.4   999.0
 211   18:20   76.6    27    1.0   136      1.8   837.6   36.69      46    72.3   999.0
 211   18:30   74.6    33    0.1   168      0.8   837.6   36.66      91    72.3   999.0
 211   18:40   72.4    37    1.5    31      3.2   837.6   36.69      37    72.2   999.0
 211   18:50   70.5    42    1.2    12      2.9   837.7   36.69      32    72.2   999.0
 211   19:00   69.7    43    1.9    47      2.7   837.8   36.69      26    72.1   999.0
 211   19:10   69.6    43    1.3    35      2.1   837.8   36.69      15    71.9   999.0
 211   19:20   68.8    44    1.1    41      1.9   837.9   36.69       4    71.8   999.0
 211   19:30   68.5    43    2.1    44      4.4   837.9   36.69       1    71.7   999.0
 211   19:40   67.9    44    1.5    42      2.4   837.9   36.69       0    71.5   999.0
 211   19:50   67.6    43    1.7    43      4.1   837.9   36.69       0    71.4   999.0
 211   20:00   67.0    42    2.5    30      4.7   837.9   36.69       0    71.2   999.0
 211   20:10   66.6    41    2.3    23      4.5   838.0   36.69       0    71.0   999.0
 211   20:20   66.1    40    2.1    29      4.7   838.0   36.69       0    70.8   999.0
 211   20:30   65.3    43    1.1   356      2.0   838.1   36.69       0    70.7   999.0
 211   20:40   64.9    43    1.7    32      3.3   838.2   36.69       0    70.5   999.0
 211   20:50   65.0    42    1.4    43      2.5   838.2   36.69       0    70.4   999.0
 211   21:00   64.0    43    0.5    46      1.9   838.3   36.73       0    70.2   999.0
 211   21:10   63.4    43    1.0    36      2.3   838.4   36.69       0    70.0   999.0
 211   21:20   63.0    44    1.7    32      2.5   838.5   36.73       0    69.8   999.0
 211   21:30   62.5    43    1.8    28      3.0   838.5   36.73       0    69.7   999.0
 211   21:40   62.7    42    1.9    41      3.0   838.4   36.73       0    69.5   999.0
 211   21:50   63.2    41    2.0    36      2.7   838.4   36.69       0    69.3   999.0
 211   22:00   62.7    44    1.5    35      3.1   838.4   36.69       0    69.1   999.0
 211   22:10   63.4    43    1.7    43      3.1   838.4   36.69       0    69.0   999.0
 211   22:20   63.2    44    1.9    39      2.5   838.3   36.69       0    68.8   999.0
 211   22:30   62.9    44    1.2    57      2.0   838.4   36.69       0    68.6   999.0
 211   22:40   62.9    44    0.8    39      1.4   838.4   36.69       0    68.5   999.0
 211   22:50   61.8    47    0.6    43      1.8   838.4   36.69       0    68.4   999.0
 211   23:00   61.4    47    1.7    36      2.3   838.5   36.69       0    68.2   999.0
 211   23:10   61.1    48    1.6    32      2.5   838.6   36.69       0    68.0   999.0
 211   23:20   61.1    47    1.7    53      2.6   838.6   36.69       0    67.9   999.0
 211   23:30   60.9    48    1.3    47      2.0   838.6   36.69       0    67.7   999.0
 211   23:40   60.4    48    1.0    44      2.0   838.6   36.69       0    67.6   999.0
 211   23:50   59.8    50    1.1    36      2.2   838.6   36.69       0    67.4   999.0
 212    0:00   59.4    51    1.6    40      2.6   838.6   36.69       0    67.3   999.0
 212    0:10   59.6    51    1.4    44      2.8   838.5   36.69       0    67.1   999.0
 212    0:20   59.3    53    1.2    32      2.3   838.4   36.69       0    66.9   999.0
 212    0:30   59.0    53    1.5    42      3.1   838.3   36.69       0    66.8   999.0
 212    0:40   59.3    52    2.1    35      2.9   838.2   36.69       0    66.6   999.0
 212    0:50   59.4    51    2.0    32      2.9   838.1   36.73       0    66.5   999.0
 212    1:00   59.5    51    1.4    54      2.9   838.0   36.69       0    66.3   999.0
 212    1:10   59.6    50    1.4    58      2.4   837.8   36.69       0    66.2   999.0
 212    1:20   58.8    53    1.5    39      1.9   837.8   36.69       0    66.0   999.0
 212    1:30   58.4    54    1.6    38      2.6   837.8   36.69       0    65.8   999.0
 212    1:40   58.0    54    1.8    41      2.9   837.8   36.69       0    65.7   999.0
 212    1:50   58.2    54    1.9    42      2.9   837.8   36.69       0    65.5   999.0
 212    2:00   58.4    54    2.7    34      3.5   837.7   36.73       0    65.4   999.0
 212    2:10   58.4    52    1.9    29      2.8   837.7   36.69       0    65.2   999.0
 212    2:20   58.8    52    2.4    41      3.2   837.7   36.69       0    65.1   999.0
 212    2:30   58.9    53    2.3    37      3.1   837.6   36.69       0    64.9   999.0
 212    2:40   58.7    54    2.2    42      3.1   837.7   36.73       0    64.8   999.0
 212    2:50   58.8    54    2.2    34      3.4   837.7   36.73       0    64.7   999.0
 212    3:00   58.8    54    1.9    34      2.5   837.7   36.69       0    64.6   999.0
 212    3:10   58.8    54    1.7    31      2.8   837.7   36.69       0    64.4   999.0
 212    3:20   59.2    52    0.9    53      1.4   837.7   36.69       0    64.3   999.0
 212    3:30   59.5    52    1.6    38      2.3   837.7   36.73       0    64.2   999.0
 212    3:40   59.2    54    1.5    36      2.0   837.7   36.69       0    64.1   999.0
 212    3:50   59.2    54    1.9    36      2.9   837.7   36.69       0    64.0   999.0
 212    4:00   60.0    53    2.0    39      3.0   837.7   36.69       0    63.9   999.0
 212    4:10   60.0    54    1.4    38      2.6   837.7   36.73       0    63.8   999.0
 212    4:20   60.3    53    1.2    37      2.0   837.7   36.73       0    63.8   999.0
 212    4:30   60.4    52    1.4    40      2.3   837.8   36.73       0    63.7   999.0
 212    4:40   60.0    55    1.1    30      2.2   837.9   36.73       0    63.6   999.0
 212    4:50   60.0    54    1.3    29      1.9   838.0   36.73       0    63.5   999.0
 212    5:00   60.6    52    1.7    44      3.1   838.0   36.73       1    63.5   999.0
 212    5:10   60.8    51    2.0    35      2.7   838.1   36.73       4    63.4   999.0
 212    5:20   61.2    50    1.5    53      2.3   838.3   36.73      10    63.4   999.0
 212    5:30   61.0    52    1.1    33      2.9   838.4   36.73      17    63.3   999.0
 212    5:40   61.0    52    1.1    40      2.3   838.6   36.73      31    63.2   999.0
 212    5:50   60.9    54    1.5    32      3.3   838.7   36.73      37    63.2   999.0
 212    6:00   61.1    55    2.3    31      3.5   838.7   36.73      41    63.2   999.0
 212    6:10   60.8    59    1.4    20      2.6   838.7   36.76      48    63.2   999.0
 212    6:20   61.1    60    1.7    46      2.6   838.5   36.73      57    63.1   999.0
 212    6:30   61.3    62    1.6    31      2.3   838.5   36.76      42    63.1   999.0
 212    6:40   61.3    62    1.8    37      2.9   838.6   36.73      34    63.1   999.0
 212    6:50   60.9    66    0.8    48      2.8   838.6   36.73      48    63.0   999.0
 212    7:00   61.2    63    1.6    49      2.6   838.5   36.73      67    63.0   999.0
 212    7:10   61.9    63    1.5    34      2.3   838.6   36.73      91    63.0   999.0
 212    7:20   62.2    61    2.0    62      3.4   838.5   36.73     100    63.0   999.0
 212    7:30   63.0    60    1.7    52      3.2   838.3   36.73     144    63.0   999.0
 212    7:40   64.3    59    1.4   265      3.9   838.4   36.73     246    63.0   999.0
 212    7:50   65.8    59    1.0   339      2.3   838.8   36.76     194    63.1   999.0
 212    8:00   65.8    62    1.2    16      2.4   838.9   36.69     238    63.1   999.0
 212    8:10   67.0    56    0.4    98      1.6   838.9   36.73     274    63.2   999.0
 212    8:20   68.3    56    1.1    74      1.9   838.9   36.73     265    63.3   999.0
 212    8:30   68.4    57    0.9    77      2.0   839.0   36.76     199    63.4   999.0
 212    8:40   67.6    59    1.3    38      1.8   838.9   36.73     154    63.5   999.0
 212    8:50   66.9    59    1.6    64      2.5   838.9   36.76     165    63.7   999.0
 212    9:00   67.3    62    0.8    50      2.0   838.8   36.73     255    63.8   999.0
 212    9:10   68.7    58    0.8    50      2.4   838.7   36.73     284    63.9   999.0
 212    9:20   70.1    57    0.7   359      1.5   838.6   36.73     232    64.0   999.0
 212    9:30   70.4    59    1.0   127      2.0   838.5   36.73     525    64.1   999.0
 212    9:40   74.0    42    1.6   252      3.8   838.6   36.73     783    64.2   999.0
 212    9:50   75.3    34    1.2   313      4.0   838.7   36.73     646    64.4   999.0
 212   10:00   74.8    34    1.2    47      2.7   838.7   36.73     425    64.6   999.0
 212   10:10   74.1    38    1.2    69      2.3   838.6   36.73     355    64.8   999.0
 212   10:20   74.3    38    0.5    99      2.1   838.7   36.73     276    65.1   999.0
 212   10:30   73.6    45    0.8    14      1.9   838.7   36.73     374    65.4   999.0
 212   10:40   74.3    40    1.0   347      1.9   838.8   36.73     499    65.6   999.0
 212   10:50   75.1    35    0.8   349      1.6   838.8   36.73     311    65.9   999.0
 212   11:00   74.6    40    1.0    38      1.5   838.8   36.73     391    66.1   999.0
 212   11:10   75.5    38    0.6    33      1.5   838.7   36.69     447    66.3   999.0
 212   11:20   77.3    32    0.4   336      1.2   838.6   36.73     464    66.5   999.0
 212   11:30   77.4    34    0.4   352      0.9   838.5   36.69     416    66.8   999.0
 212   11:40   77.5    33    0.9   211      2.6   838.4   36.73     363    67.0   999.0
 212   11:50   77.6    33    1.2   201      3.9   838.4   36.69     315    67.2   999.0
 212   12:00   76.5    35    1.5   164      3.8   838.4   36.69     166    67.4   999.0
 212   12:10   74.3    43    1.0   121      3.7   838.6   36.69      80    67.6   999.0
 212   12:20   71.9    49    1.2   273      6.9   838.7   36.73      42    67.7   999.0
 212   12:30   70.9    49    1.7    11      6.6   839.0   36.73      39    67.9   999.0
 212   12:40   70.4    43    2.2    48      8.1   839.1   36.69      77    67.9   999.0
 212   12:50   71.6    42    0.9     1      2.8   839.1   36.73     116    68.0   999.0
 212   13:00   71.7    35    2.1   109      6.0   839.1   36.69      74    68.0   999.0
 212   13:10   72.7    29    3.1   163      9.3   839.4   36.73      67    68.0   999.0
 212   13:20   71.7    38    1.9    66      7.7   839.5   36.73      50    68.0   999.0
 212   13:30   68.8    48    1.4    60      6.1   839.5   36.73      45    68.0   999.0
 212   13:40   67.8    45    2.4    66      6.2   839.2   36.73     101    67.9   999.0
 212   13:50   69.6    38    1.9   345      5.9   838.7   36.73     156    67.9   999.0
 212   14:00   70.7    36    1.5    57      6.1   838.4   36.73     147    67.8   999.0
 212   14:10   71.3    34    1.7    95      7.3   838.4   36.73     263    67.7   999.0
 212   14:20   72.2    33    1.7   122      5.3   838.4   36.73     170    67.7   999.0
 212   14:30   71.4    33    1.7    82      4.9   838.4   36.73      83    67.7   999.0
 212   14:40   69.9    42    0.7    62      1.8   838.1   36.69      62    67.7   999.0
 212   14:50   69.3    39    2.3   128      5.7   837.9   36.69     110    67.7   999.0
 212   15:00   70.3    39    2.2   127      5.0   838.0   36.69     147    67.7   999.0
 212   15:10   70.5    44    0.3    87      1.4   838.0   36.73     161    67.7   999.0
 212   15:20   69.3    51    0.5    35      1.5   837.9   36.69      93    67.7   999.0
 212   15:30   68.1    54    0.7    76      2.1   837.7   36.73      70    67.6   999.0

Return to Onion Creek graphs page.


Western Regional Climate Center,wrcc@dri.edu